Time;durP1;ratioP1;P1;durP2;ratioP2;P2;SDS_P1;SDS_P2;PMS_P1;PMS_P2;Temp;Humidity;BMP_temperature;BMP_pressure;BME280_temperature;BME280_humidity;BME280_pressure;Samples;Min_cycle;Max_cycle;Signal;HPM_P1;HPM_P2
2021/06/15 00:00:55;;;;;;;5.12;3.50;;;;;;;13.23;60.23;98574.87;1705267;82;28086;-87
2021/06/15 00:03:22;;;;;;;8.20;3.45;;;;;;;13.16;60.37;98584.17;1705415;81;28167;-87
2021/06/15 00:05:50;;;;;;;6.83;3.42;;;;;;;13.20;60.51;98583.48;1704016;81;28065;-87
2021/06/15 00:08:27;;;;;;;5.12;3.22;;;;;;;13.22;60.65;98580.23;1703282;82;28123;-88
2021/06/15 00:10:53;;;;;;;6.75;3.27;;;;;;;13.29;60.76;98581.44;1702534;82;28081;-88
2021/06/15 00:13:21;;;;;;;6.37;3.42;;;;;;;13.28;60.86;98588.48;1704482;83;28012;-87
2021/06/15 00:15:50;;;;;;;6.47;3.45;;;;;;;13.22;60.90;98586.33;1706063;83;28085;-87
2021/06/15 00:18:18;;;;;;;5.83;3.37;;;;;;;13.14;61.00;98585.27;1707388;81;28205;-88
2021/06/15 00:20:47;;;;;;;5.95;3.72;;;;;;;13.16;61.07;98581.55;1682972;83;28120;-87
2021/06/15 00:23:15;;;;;;;6.92;3.22;;;;;;;13.25;61.18;98586.58;1686253;84;28158;-88
2021/06/15 00:25:41;;;;;;;5.42;3.30;;;;;;;13.23;61.26;98583.22;1695604;83;28144;-87
2021/06/15 00:28:08;;;;;;;6.50;3.27;;;;;;;13.17;61.34;98586.33;1686294;84;28131;-88
2021/06/15 00:30:34;;;;;;;5.70;3.35;;;;;;;13.07;61.41;98583.55;1684307;84;28065;-87
2021/06/15 00:33:01;;;;;;;6.78;3.95;;;;;;;13.06;61.48;98585.81;1691178;83;28124;-87
2021/06/15 00:35:29;;;;;;;6.70;4.42;;;;;;;13.11;61.58;98583.67;1689822;84;28071;-87
2021/06/15 00:37:57;;;;;;;6.28;4.33;;;;;;;13.14;61.67;98583.95;1677957;84;28046;-89
2021/06/15 00:40:23;;;;;;;5.28;3.95;;;;;;;13.12;61.71;98587.16;1686629;84;28081;-88
2021/06/15 00:42:51;;;;;;;6.58;3.67;;;;;;;13.13;61.76;98587.53;1648808;85;28110;-89
2021/06/15 00:45:21;;;;;;;10.00;4.20;;;;;;;13.12;61.84;98580.59;1677077;83;28067;-89
2021/06/15 00:47:48;;;;;;;7.17;4.47;;;;;;;12.97;61.85;98572.92;1684830;84;28152;-88
2021/06/15 00:50:16;;;;;;;6.03;3.92;;;;;;;12.83;61.87;98566.56;1685849;83;28110;-88
2021/06/15 00:52:42;;;;;;;7.53;4.28;;;;;;;12.76;61.95;98567.17;1657110;84;28089;-88
2021/06/15 00:55:09;;;;;;;9.88;4.50;;;;;;;12.67;62.01;98565.23;1687250;83;28052;-88
2021/06/15 00:57:36;;;;;;;7.85;4.30;;;;;;;12.61;62.09;98563.91;1672649;83;28173;-88
2021/06/15 01:00:05;;;;;;;7.72;4.55;;;;;;;12.49;62.19;98546.48;1687363;84;28070;-88
2021/06/15 01:02:32;;;;;;;8.90;3.75;;;;;;;12.53;62.32;98552.70;1690569;83;28164;-88
2021/06/15 01:05:00;;;;;;;5.47;3.70;;;;;;;12.49;62.42;98550.42;1708341;82;28048;-88
2021/06/15 01:07:33;;;;;;;6.67;3.95;;;;;;;12.51;62.54;98550.66;1674308;84;28114;-88
2021/06/15 01:10:18;;;;;;;11.88;4.15;;;;;;;12.58;62.66;98545.78;1687861;84;28087;-88
2021/06/15 01:16:18;;;;;;;6.97;3.98;;;;;;;12.53;62.85;98543.98;1686423;83;28187;-88
2021/06/15 01:19:03;;;;;;;10.20;4.22;;;;;;;12.58;62.96;98539.22;1688079;83;28486;-88
2021/06/15 01:21:30;;;;;;;8.33;4.05;;;;;;;12.65;63.04;98533.02;1647241;84;28075;-88
2021/06/15 01:24:02;;;;;;;8.33;4.22;;;;;;;12.71;63.12;98538.62;1684106;82;28098;-88
2021/06/15 01:26:53;;;;;;;9.20;4.33;;;;;;;12.78;63.16;98541.14;1682528;82;28165;-88
2021/06/15 01:29:25;;;;;;;7.33;3.98;;;;;;;12.85;63.19;98540.20;1664458;82;28112;-88
2021/06/15 01:31:55;;;;;;;10.88;4.17;;;;;;;12.78;63.22;98540.30;1693661;82;28130;-88
2021/06/15 01:34:36;;;;;;;5.85;4.25;;;;;;;12.67;63.20;98542.44;1679701;83;28159;-88
2021/06/15 01:37:12;;;;;;;6.85;3.80;;;;;;;12.54;63.22;98540.41;1683674;82;28069;-88
2021/06/15 01:39:46;;;;;;;6.65;3.92;;;;;;;12.50;63.28;98536.32;1694084;82;28101;-88
2021/06/15 01:42:25;;;;;;;7.53;4.12;;;;;;;12.41;63.33;98536.55;1664983;82;28119;-88
2021/06/15 01:45:02;;;;;;;7.08;3.67;;;;;;;12.35;63.38;98538.80;1687319;82;28111;-88
2021/06/15 01:47:29;;;;;;;6.80;4.30;;;;;;;12.36;63.46;98543.94;1667179;84;28046;-87
2021/06/15 01:50:04;;;;;;;8.90;4.08;;;;;;;12.35;63.54;98538.33;1680826;82;28160;-88
2021/06/15 01:52:35;;;;;;;5.55;3.60;;;;;;;12.34;63.65;98527.46;1683446;82;28051;-88
2021/06/15 01:55:07;;;;;;;7.40;4.37;;;;;;;12.31;63.75;98526.87;1691231;82;28147;-88
2021/06/15 01:57:34;;;;;;;6.55;3.87;;;;;;;12.30;63.82;98527.34;1693476;82;28091;-87
2021/06/15 02:00:10;;;;;;;6.35;3.62;;;;;;;12.27;63.87;98520.19;1686709;81;28095;-88
2021/06/15 02:02:38;;;;;;;6.60;3.98;;;;;;;12.24;63.95;98520.40;1687165;82;28145;-87
2021/06/15 02:05:08;;;;;;;5.67;3.87;;;;;;;12.14;63.99;98515.86;1686690;82;28076;-87
2021/06/15 02:07:38;;;;;;;5.90;3.62;;;;;;;12.12;64.06;98520.37;1686386;82;28849;-89
2021/06/15 02:10:10;;;;;;;6.90;3.98;;;;;;;12.08;64.11;98531.20;1687408;82;28075;-88
2021/06/15 02:12:41;;;;;;;7.50;3.58;;;;;;;12.05;64.16;98528.83;1682473;82;28055;-88
2021/06/15 02:15:14;;;;;;;6.97;3.77;;;;;;;12.02;64.24;98519.38;1694215;82;28043;-88
2021/06/15 02:17:43;;;;;;;5.45;3.25;;;;;;;12.03;64.34;98518.91;1688004;82;28000;-88
2021/06/15 02:20:12;;;;;;;5.22;3.20;;;;;;;12.04;64.45;98516.19;1666969;84;28114;-88
2021/06/15 02:22:45;;;;;;;5.80;3.70;;;;;;;11.99;64.49;98512.23;1684758;84;28028;-88
2021/06/15 02:25:12;;;;;;;7.08;3.87;;;;;;;11.94;64.55;98511.73;1646828;84;28162;-88
2021/06/15 02:27:41;;;;;;;5.90;3.60;;;;;;;11.90;64.62;98502.40;1676485;83;28095;-88
2021/06/15 02:30:08;;;;;;;7.62;4.00;;;;;;;11.91;64.66;98510.63;1709056;82;28218;-87
2021/06/15 02:32:37;;;;;;;6.00;3.65;;;;;;;11.94;64.73;98513.89;1712352;82;28057;-88
2021/06/15 02:35:13;;;;;;;6.85;3.70;;;;;;;11.92;64.79;98513.16;1710017;82;28171;-88
2021/06/15 02:38:01;;;;;;;6.50;3.85;;;;;;;12.03;64.86;98511.05;1703304;82;28085;-87
2021/06/15 02:40:28;;;;;;;6.20;3.62;;;;;;;12.16;64.95;98505.25;1675868;83;28119;-88
2021/06/15 02:42:57;;;;;;;8.78;4.10;;;;;;;12.20;64.99;98505.38;1709725;82;28114;-87
2021/06/15 02:45:26;;;;;;;5.72;3.30;;;;;;;12.26;65.02;98502.77;1713283;82;28137;-88
2021/06/15 02:47:57;;;;;;;5.62;3.80;;;;;;;12.31;65.02;98501.47;1710111;82;28076;-88
2021/06/15 02:50:30;;;;;;;8.68;3.95;;;;;;;12.37;65.06;98494.44;1696901;82;28203;-87
2021/06/15 02:53:01;;;;;;;6.50;3.70;;;;;;;12.42;65.07;98504.11;1710550;82;28175;-88
2021/06/15 02:55:46;;;;;;;5.35;2.67;;;;;;;12.32;65.07;98502.30;1708672;82;44998;-88
2021/06/15 02:58:12;;;;;;;8.73;3.72;;;;;;;12.21;65.03;98503.59;1702161;82;28108;-87
2021/06/15 03:00:39;;;;;;;12.15;4.08;;;;;;;12.14;65.02;98496.65;1709142;82;28020;-88
2021/06/15 03:03:08;;;;;;;7.10;4.22;;;;;;;12.24;65.04;98504.66;1705810;83;28438;-88
2021/06/15 03:05:35;;;;;;;6.20;3.35;;;;;;;12.29;65.07;98502.05;1709304;82;28203;-87
2021/06/15 03:08:04;;;;;;;6.40;3.35;;;;;;;12.31;65.07;98505.88;1710419;82;28084;-88
2021/06/15 03:10:37;;;;;;;6.65;3.85;;;;;;;12.35;65.08;98504.69;1705805;82;28115;-87
2021/06/15 03:13:35;;;;;;;4.75;3.20;;;;;;;12.43;65.10;98521.54;1708514;82;28144;-87
2021/06/15 03:16:08;;;;;;;4.75;3.25;;;;;;;12.46;65.11;98515.20;1709464;82;28128;-87
2021/06/15 03:18:38;;;;;;;8.20;4.00;;;;;;;12.49;65.11;98520.23;1710697;82;28470;-88
2021/06/15 03:21:08;;;;;;;4.92;2.98;;;;;;;12.49;65.12;98525.48;1683780;82;28157;-88
2021/06/15 03:23:47;;;;;;;7.65;3.65;;;;;;;12.50;65.13;98525.34;1652713;84;28055;-88
2021/06/15 03:26:22;;;;;;;6.08;3.08;;;;;;;12.57;65.16;98530.97;1689164;83;28093;-87
2021/06/15 03:28:55;;;;;;;4.55;3.17;;;;;;;12.63;65.19;98529.20;1680017;83;28148;-88
2021/06/15 03:31:31;;;;;;;7.33;3.67;;;;;;;12.76;65.23;98526.00;1673537;83;28124;-88
2021/06/15 03:34:00;;;;;;;5.37;3.42;;;;;;;12.88;65.30;98526.34;1677880;83;28055;-88
2021/06/15 03:36:29;;;;;;;5.30;3.45;;;;;;;13.02;65.38;98529.69;1679019;83;28088;-88
2021/06/15 03:38:57;;;;;;;8.43;3.85;;;;;;;13.17;65.41;98522.78;1681131;83;28124;-88
2021/06/15 03:41:28;;;;;;;8.08;3.70;;;;;;;13.38;65.44;98519.77;1681833;83;28112;-88
2021/06/15 03:43:56;;;;;;;6.40;3.70;;;;;;;13.62;65.47;98518.76;1680642;83;28190;-87
2021/06/15 03:46:24;;;;;;;8.03;3.92;;;;;;;13.80;65.47;98520.71;1680536;83;28085;-87
2021/06/15 03:48:52;;;;;;;5.75;3.33;;;;;;;13.96;65.49;98524.75;1675543;83;28095;-87
2021/06/15 03:51:25;;;;;;;7.62;3.52;;;;;;;14.10;65.44;98523.95;1677339;83;28146;-88
2021/06/15 03:53:52;;;;;;;7.42;3.40;;;;;;;14.31;65.40;98521.80;1679291;83;28111;-88
2021/06/15 03:56:20;;;;;;;4.40;3.50;;;;;;;14.43;65.39;98515.55;1681440;84;28076;-88
2021/06/15 03:58:48;;;;;;;9.85;3.20;;;;;;;14.56;65.37;98515.69;1680065;83;28031;-87
2021/06/15 04:01:16;;;;;;;5.97;3.45;;;;;;;14.72;65.32;98514.41;1672821;83;28082;-88
2021/06/15 04:03:53;;;;;;;5.17;3.40;;;;;;;14.97;65.29;98513.48;1667983;83;28076;-88
2021/06/15 04:06:21;;;;;;;5.30;3.30;;;;;;;15.12;65.22;98508.67;1678130;83;28102;-87
2021/06/15 04:08:49;;;;;;;4.10;3.20;;;;;;;15.29;65.08;98508.51;1675138;83;28155;-87
2021/06/15 04:11:17;;;;;;;6.97;3.60;;;;;;;15.42;64.96;98513.06;1681495;83;28041;-87
2021/06/15 04:13:44;;;;;;;7.83;2.90;;;;;;;15.59;64.91;98503.69;1681538;83;28204;-88
2021/06/15 04:16:12;;;;;;;8.13;3.33;;;;;;;15.72;64.80;98501.13;1679073;83;28017;-87
2021/06/15 04:18:45;;;;;;;6.00;3.45;;;;;;;15.82;64.67;98506.41;1660500;83;28224;-87
2021/06/15 04:21:14;;;;;;;6.25;3.45;;;;;;;15.87;64.52;98508.17;1672400;83;28187;-88
2021/06/15 04:23:48;;;;;;;6.40;3.33;;;;;;;16.01;64.40;98506.42;1691001;84;28144;-88
2021/06/15 04:26:16;;;;;;;5.67;3.52;;;;;;;16.12;64.27;98506.28;1691713;83;28091;-88
2021/06/15 04:28:42;;;;;;;5.85;3.37;;;;;;;16.25;64.15;98504.20;1701713;83;28126;-88
2021/06/15 04:31:16;;;;;;;4.55;3.50;;;;;;;16.29;64.00;98500.29;1707645;83;28038;-88
2021/06/15 04:33:46;;;;;;;7.25;3.65;;;;;;;16.34;63.86;98502.50;1706750;83;28116;-88
2021/06/15 04:36:13;;;;;;;5.65;3.72;;;;;;;16.37;63.73;98496.92;1707426;83;28095;-88
2021/06/15 04:39:14;;;;;;;6.92;3.52;;;;;;;16.44;63.61;98499.83;1706609;81;28134;-88
2021/06/15 04:42:02;;;;;;;6.25;3.27;;;;;;;16.46;63.48;98509.30;1706892;83;28036;-88
2021/06/15 04:44:32;;;;;;;5.40;3.12;;;;;;;16.42;63.32;98513.69;1706136;83;28155;-89
2021/06/15 04:47:15;;;;;;;5.78;3.20;;;;;;;16.50;63.23;98517.28;1694792;83;28103;-88
2021/06/15 04:49:56;;;;;;;4.55;3.20;;;;;;;16.58;63.13;98514.73;1705253;83;28144;-88
2021/06/15 04:52:26;;;;;;;8.68;3.58;;;;;;;16.63;63.03;98504.64;1705021;83;28139;-88
2021/06/15 04:54:56;;;;;;;9.25;3.55;;;;;;;16.69;62.92;98515.13;1705200;83;28157;-88
2021/06/15 04:57:41;;;;;;;4.55;3.50;;;;;;;16.82;62.83;98524.03;1707187;82;28135;-88
2021/06/15 05:00:08;;;;;;;6.58;3.45;;;;;;;16.86;62.68;98517.48;1705180;83;28131;-88
2021/06/15 05:02:39;;;;;;;5.60;3.35;;;;;;;16.90;62.54;98517.55;1707629;83;28096;-89
2021/06/15 05:05:08;;;;;;;7.17;3.58;;;;;;;16.97;62.46;98513.33;1706592;83;28112;-88
2021/06/15 05:07:37;;;;;;;6.00;3.55;;;;;;;16.99;62.34;98519.31;1706408;83;28077;-88
2021/06/15 05:10:05;;;;;;;8.90;4.30;;;;;;;17.06;62.25;98522.57;1707196;83;28085;-88
2021/06/15 05:12:36;;;;;;;;;;;;;;;17.09;62.12;98528.04;1712444;83;21988;-87
2021/06/15 05:15:04;;;;;;;;;;;;;;;17.07;61.96;98530.82;1681533;84;26710;-89
2021/06/15 05:17:30;;;;;;;;;;;;;;;17.04;61.82;98539.06;1644351;86;24432;-89
2021/06/15 05:19:57;;;;;;;;;;;;;;;16.99;61.73;98538.66;1644710;86;20476;-89
2021/06/15 05:22:27;;;;;;;;;;;;;;;16.97;61.67;98541.09;1681129;84;24929;-88
2021/06/15 05:24:54;;;;;;;;;;;;;;;16.98;61.63;98543.60;1664266;85;22099;-88
2021/06/15 05:27:25;;;;;;;;;;;;;;;16.98;61.58;98546.73;1683621;83;26847;-89
2021/06/15 05:29:51;;;;;;;;;;;;;;;16.98;61.55;98550.20;1678565;83;25237;-89
2021/06/15 05:32:18;;;;;;;;;;;;;;;16.96;61.45;98550.86;1676588;83;20202;-89
2021/06/15 05:34:44;;;;;;;;;;;;;;;16.94;61.41;98555.45;1685202;84;24787;-89
2021/06/15 05:37:10;;;;;;;;;;;;;;;16.94;61.37;98558.09;1676917;83;65373;-89
2021/06/15 05:39:37;;;;;;;;;;;;;;;16.98;61.35;98563.42;1652108;85;26093;-89
2021/06/15 05:42:04;;;;;;;;;;;;;;;17.02;61.31;98567.96;1675989;84;24487;-89
2021/06/15 05:44:31;;;;;;;11.03;6.12;;;;;;;17.03;61.29;98563.83;1661076;85;20238;-89
2021/06/15 05:47:01;;;;;;;10.40;6.12;;;;;;;17.09;61.29;98564.58;1667230;84;28376;-89
2021/06/15 05:49:28;;;;;;;12.03;6.17;;;;;;;17.11;61.22;98567.92;1666208;84;28124;-89
2021/06/15 05:52:02;;;;;;;9.70;5.78;;;;;;;17.17;61.21;98560.38;1667211;85;28087;-89
2021/06/15 05:54:29;;;;;;;9.55;5.30;;;;;;;17.22;61.14;98553.68;1665522;84;28077;-88
2021/06/15 05:56:55;;;;;;;7.78;5.55;;;;;;;17.24;61.05;98554.86;1667425;84;28095;-89
2021/06/15 05:59:23;;;;;;;9.43;5.85;;;;;;;17.33;60.98;98547.36;1690228;84;28178;-89
2021/06/15 06:01:50;;;;;;;8.53;5.22;;;;;;;17.41;60.95;98552.73;1633236;86;28124;-90
2021/06/15 06:04:20;;;;;;;12.03;5.75;;;;;;;17.48;60.80;98549.37;1651225;84;28070;-89
2021/06/15 06:09:38;;;;;;;9.33;4.87;;;;;;;17.61;60.54;98551.70;1655622;84;28092;-88
2021/06/15 06:12:05;;;;;;;9.83;5.00;;;;;;;17.67;60.42;98557.73;1687449;84;28161;-88
2021/06/15 06:14:35;;;;;;;8.65;5.47;;;;;;;17.71;60.28;98555.61;1689774;83;28154;-88
2021/06/15 06:17:03;;;;;;;7.95;4.67;;;;;;;17.74;60.12;98560.10;1688805;83;28110;-88
2021/06/15 06:19:30;;;;;;;8.98;4.58;;;;;;;17.76;59.93;98563.45;1684082;83;28067;-88
2021/06/15 06:22:01;;;;;;;8.90;4.08;;;;;;;17.80;59.76;98562.64;1670097;83;28010;-88
2021/06/15 06:24:27;;;;;;;7.10;4.15;;;;;;;17.83;59.59;98560.55;1676717;83;28112;-89
2021/06/15 06:26:54;;;;;;;9.58;4.12;;;;;;;17.86;59.48;98552.78;1693244;83;28093;-88
2021/06/15 06:29:32;;;;;;;7.45;3.95;;;;;;;17.82;59.35;98553.59;1691441;83;28079;-89
2021/06/15 06:31:58;;;;;;;6.47;3.95;;;;;;;17.87;59.26;98557.10;1672874;82;28170;-89
2021/06/15 06:34:25;;;;;;;8.25;4.30;;;;;;;17.85;59.12;98554.59;1685834;83;28075;-89
2021/06/15 06:36:57;;;;;;;9.13;3.98;;;;;;;17.90;59.03;98558.11;1690943;82;28142;-89
2021/06/15 06:39:24;;;;;;;9.25;4.33;;;;;;;17.95;58.95;98563.79;1683394;82;28075;-88
2021/06/15 06:41:50;;;;;;;13.80;4.60;;;;;;;18.08;58.95;98563.42;1674288;83;28071;-88
2021/06/15 06:44:17;;;;;;;8.40;4.35;;;;;;;18.16;58.86;98552.92;1666825;84;28113;-88
2021/06/15 06:46:44;;;;;;;8.10;4.45;;;;;;;18.25;58.82;98558.63;1689233;83;28094;-88
2021/06/15 06:49:10;;;;;;;8.23;4.25;;;;;;;18.33;58.71;98559.52;1694060;81;28193;-88
2021/06/15 06:51:39;;;;;;;8.60;4.37;;;;;;;18.46;58.68;98559.63;1693521;83;28075;-88
2021/06/15 06:54:06;;;;;;;8.25;4.85;;;;;;;18.60;58.64;98561.77;1687591;83;28093;-89
2021/06/15 06:56:32;;;;;;;10.25;5.22;;;;;;;18.69;58.60;98562.16;1689483;83;28092;-88
2021/06/15 06:58:58;;;;;;;8.85;4.17;;;;;;;18.74;58.47;98555.89;1692752;83;28040;-88
2021/06/15 07:01:25;;;;;;;6.78;3.80;;;;;;;18.88;58.40;98565.08;1690244;83;28098;-88
2021/06/15 07:03:52;;;;;;;7.55;4.30;;;;;;;18.97;58.34;98566.33;1690517;83;28149;-88
2021/06/15 07:06:18;;;;;;;7.45;4.25;;;;;;;19.05;58.24;98564.20;1691168;83;28141;-89
2021/06/15 07:08:45;;;;;;;7.50;4.25;;;;;;;19.13;58.11;98564.26;1669258;84;28102;-89
2021/06/15 07:11:12;;;;;;;9.45;4.58;;;;;;;19.16;57.97;98565.25;1668910;83;28080;-89
2021/06/15 07:13:38;;;;;;;10.03;4.25;;;;;;;19.17;57.85;98558.47;1668804;85;28091;-89
2021/06/15 07:16:05;;;;;;;8.15;4.45;;;;;;;19.26;57.74;98563.80;1660737;85;28136;-89
2021/06/15 07:18:36;;;;;;;7.62;3.95;;;;;;;19.29;57.60;98559.03;1666148;84;28517;-90
2021/06/15 07:21:00;;;;;;;7.75;4.60;;;;;;;19.46;57.58;98554.66;1661975;85;28040;-89
2021/06/15 07:23:27;;;;;;;7.17;4.22;;;;;;;19.60;57.55;98554.86;1647748;86;28175;-89
2021/06/15 07:25:56;;;;;;;7.00;4.25;;;;;;;19.76;57.47;98555.41;1643105;86;28103;-89
2021/06/15 07:28:23;;;;;;;8.25;4.47;;;;;;;19.80;57.35;98558.59;1623387;86;28174;-89
2021/06/15 07:30:49;;;;;;;6.58;3.67;;;;;;;19.83;57.19;98549.79;1683112;83;27985;-90
2021/06/15 07:33:23;;;;;;;9.28;4.28;;;;;;;19.90;57.05;98546.83;1688833;83;28065;-90
2021/06/15 07:35:51;;;;;;;7.20;3.75;;;;;;;19.91;56.82;98543.67;1684387;84;28076;-89
2021/06/15 07:38:24;;;;;;;6.75;3.55;;;;;;;20.00;56.69;98544.02;1683889;84;28021;-90
2021/06/15 07:40:57;;;;;;;7.35;3.70;;;;;;;20.10;56.59;98551.33;1690035;84;28027;-90
2021/06/15 07:43:32;;;;;;;7.10;2.77;;;;;;;20.14;56.38;98551.33;1688180;84;28128;-90
2021/06/15 07:45:59;;;;;;;6.60;3.05;;;;;;;20.12;56.12;98553.34;1690287;84;28048;-90
2021/06/15 07:48:25;;;;;;;4.67;3.10;;;;;;;20.25;56.00;98548.34;1685108;84;28088;-90
2021/06/15 07:50:54;;;;;;;7.87;3.40;;;;;;;20.38;55.91;98546.06;1665987;84;28175;-90
2021/06/15 07:53:22;;;;;;;5.67;2.70;;;;;;;20.43;55.72;98547.73;1685633;83;28055;-90
2021/06/15 07:55:48;;;;;;;5.75;2.70;;;;;;;20.40;55.46;98547.24;1688779;84;28093;-90
2021/06/15 07:58:14;;;;;;;8.83;3.27;;;;;;;20.45;55.24;98553.72;1693354;84;28120;-90
2021/06/15 08:00:41;;;;;;;6.37;3.12;;;;;;;20.49;55.03;98550.22;1685437;84;28100;-90
2021/06/15 08:03:07;;;;;;;5.33;2.80;;;;;;;20.56;54.82;98554.38;1679703;83;28029;-90
2021/06/15 08:05:36;;;;;;;7.05;3.30;;;;;;;20.59;54.57;98540.73;1674098;83;28197;-90
2021/06/15 08:08:03;;;;;;;6.03;2.70;;;;;;;20.61;54.39;98538.75;1672729;83;28448;-90
2021/06/15 08:10:35;;;;;;;6.47;2.65;;;;;;;20.67;54.19;98543.40;1677620;83;28088;-91
2021/06/15 08:13:02;;;;;;;4.28;2.60;;;;;;;20.68;53.94;98547.20;1642156;83;28178;-91
2021/06/15 08:15:28;;;;;;;3.80;2.70;;;;;;;20.75;53.78;98548.20;1678816;83;28024;-90
2021/06/15 08:17:54;;;;;;;5.80;2.90;;;;;;;20.84;53.71;98549.83;1697340;84;28077;-91
2021/06/15 08:20:21;;;;;;;7.12;2.92;;;;;;;21.02;53.67;98548.80;1686580;84;28101;-90
2021/06/15 08:22:48;;;;;;;3.90;2.67;;;;;;;21.14;53.64;98549.64;1703561;82;28065;-90
2021/06/15 08:25:14;;;;;;;5.60;2.42;;;;;;;21.31;53.55;98543.77;1710676;82;28143;-91
2021/06/15 08:27:41;;;;;;;5.60;2.83;;;;;;;21.36;53.36;98540.58;1711009;82;28013;-90
2021/06/15 08:30:11;;;;;;;4.40;3.15;;;;;;;21.40;53.14;98536.06;1720580;82;28196;-90
2021/06/15 08:32:40;;;;;;;6.67;3.02;;;;;;;21.49;52.87;98538.20;1720354;82;27993;-91
2021/06/15 08:35:07;;;;;;;7.00;2.87;;;;;;;21.56;52.71;98534.66;1699580;82;28014;-90
2021/06/15 08:37:35;;;;;;;4.05;2.80;;;;;;;21.61;52.52;98530.97;1717646;82;28167;-90
2021/06/15 08:40:07;;;;;;;5.20;2.60;;;;;;;21.68;52.35;98537.77;1720464;82;28096;-91
2021/06/15 08:42:37;;;;;;;4.55;2.77;;;;;;;21.74;52.15;98538.90;1716472;82;28087;-91
2021/06/15 08:45:03;;;;;;;5.78;2.55;;;;;;;21.77;51.97;98533.20;1723588;81;28158;-91
2021/06/15 08:47:30;;;;;;;4.75;2.30;;;;;;;21.76;51.78;98534.23;1715245;82;28003;-91
2021/06/15 08:49:56;;;;;;;6.30;2.92;;;;;;;21.74;51.62;98533.07;1718728;82;28103;-90
2021/06/15 08:52:29;;;;;;;3.70;2.30;;;;;;;21.76;51.44;98533.73;1709634;82;28080;-90
2021/06/15 08:54:59;;;;;;;3.55;2.45;;;;;;;21.73;51.13;98529.23;1715232;82;28062;-90
2021/06/15 08:57:26;;;;;;;5.30;2.92;;;;;;;21.79;50.95;98519.22;1720623;82;28081;-89
2021/06/15 09:00:00;;;;;;;5.12;2.58;;;;;;;21.88;50.83;98523.48;1722051;82;28070;-89
2021/06/15 09:02:23;;;;;;;;;;;;;;;22.00;50.81;98528.27;1721288;82;28064;-89
2021/06/15 09:04:49;;;;;;;5.25;2.90;;;;;;;22.11;50.68;98522.53;1720198;82;20224;-89
2021/06/15 09:07:16;;;;;;;4.37;2.77;;;;;;;22.22;50.47;98521.78;1714802;82;28079;-89
2021/06/15 09:09:44;;;;;;;5.97;2.83;;;;;;;22.29;50.23;98518.73;1716430;82;28094;-90
2021/06/15 09:12:16;;;;;;;6.58;2.60;;;;;;;22.37;49.97;98519.48;1725211;82;28009;-89
2021/06/15 09:14:52;;;;;;;7.33;2.85;;;;;;;22.43;49.75;98517.94;1715606;82;28095;-89
2021/06/15 09:17:35;;;;;;;6.12;2.70;;;;;;;22.57;49.58;98521.16;1724436;82;28124;-90
2021/06/15 09:20:14;;;;;;;4.72;2.50;;;;;;;22.67;49.38;98517.73;1718699;82;28039;-89
2021/06/15 09:22:41;;;;;;;4.45;2.42;;;;;;;22.75;49.20;98524.33;1716799;81;28030;-89
2021/06/15 09:25:13;;;;;;;2.85;2.05;;;;;;;22.75;48.88;98523.00;1688060;83;27997;-89
2021/06/15 09:27:41;;;;;;;6.08;2.42;;;;;;;22.75;48.67;98523.00;1685386;83;28024;-89
2021/06/15 09:30:14;;;;;;;4.92;2.55;;;;;;;22.84;48.54;98513.92;1686009;83;28093;-89
2021/06/15 09:32:44;;;;;;;5.47;2.08;;;;;;;22.97;48.33;98517.77;1682089;83;28020;-89
2021/06/15 09:35:13;;;;;;;6.70;2.70;;;;;;;23.03;48.14;98515.20;1674392;83;28140;-89
2021/06/15 09:37:48;;;;;;;4.05;2.17;;;;;;;23.09;47.96;98511.80;1676024;83;28000;-90
2021/06/15 09:40:24;;;;;;;4.30;1.90;;;;;;;23.09;47.71;98518.47;1649742;85;28149;-89
2021/06/15 09:43:00;;;;;;;5.12;2.58;;;;;;;23.17;47.48;98509.05;1655255;85;28124;-89
2021/06/15 09:45:29;;;;;;;4.12;1.80;;;;;;;23.26;47.17;98507.92;1652855;85;28106;-90
2021/06/15 09:48:02;;;;;;;3.50;2.45;;;;;;;23.31;47.03;98508.70;1646809;85;28156;-89
2021/06/15 09:50:32;;;;;;;2.90;1.92;;;;;;;23.34;46.83;98509.68;1625808;84;28114;-89
2021/06/15 09:52:59;;;;;;;3.35;2.00;;;;;;;23.38;46.60;98508.28;1653531;83;28204;-90
2021/06/15 09:55:25;;;;;;;3.52;2.05;;;;;;;23.49;46.42;98510.51;1674454;83;28079;-90
2021/06/15 09:57:51;;;;;;;2.47;1.95;;;;;;;23.48;46.12;98513.36;1678169;83;28080;-90
2021/06/15 10:00:25;;;;;;;5.22;2.02;;;;;;;23.29;45.59;98510.74;1698047;83;28102;-90
2021/06/15 10:03:00;;;;;;;3.35;1.75;;;;;;;23.23;45.40;98510.14;1674909;83;28097;-89
2021/06/15 10:05:35;;;;;;;4.08;2.12;;;;;;;23.29;45.17;98510.74;1670382;83;28465;-90
2021/06/15 10:08:06;;;;;;;3.70;1.90;;;;;;;23.32;44.91;98512.52;1651769;83;28075;-90
2021/06/15 10:10:39;;;;;;;5.12;2.98;;;;;;;23.37;44.74;98506.62;1687027;83;28094;-91
2021/06/15 10:13:13;;;;;;;5.95;1.92;;;;;;;23.50;44.78;98512.17;1687027;83;28064;-90
2021/06/15 10:15:47;;;;;;;4.12;1.95;;;;;;;23.69;44.81;98502.20;1685694;83;28100;-90
2021/06/15 10:18:14;;;;;;;2.72;2.17;;;;;;;23.86;44.67;98503.31;1677063;83;28090;-89
2021/06/15 10:20:46;;;;;;;3.02;1.77;;;;;;;24.01;44.54;98503.56;1681548;83;28061;-89
2021/06/15 10:23:12;;;;;;;4.00;2.00;;;;;;;24.13;44.41;98498.55;1688010;82;28116;-89
2021/06/15 10:25:40;;;;;;;2.62;1.80;;;;;;;24.21;44.28;98497.63;1654285;83;28023;-89
2021/06/15 10:28:12;;;;;;;3.10;1.98;;;;;;;24.27;44.09;98497.70;1694280;82;28062;-88
2021/06/15 10:30:42;;;;;;;4.62;2.17;;;;;;;24.34;43.94;98496.39;1682648;82;28095;-89
2021/06/15 10:33:17;;;;;;;4.47;1.80;;;;;;;24.35;43.68;98500.72;1696579;82;28077;-89
2021/06/15 10:36:01;;;;;;;3.52;1.50;;;;;;;24.36;43.38;98497.87;1691633;83;28126;-88
2021/06/15 10:38:43;;;;;;;5.22;1.72;;;;;;;24.38;43.20;98493.16;1678546;84;28053;-89
2021/06/15 10:41:25;;;;;;;3.95;1.45;;;;;;;24.42;43.10;98489.07;1677313;83;28072;-89
2021/06/15 10:44:00;;;;;;;4.45;1.87;;;;;;;24.45;42.87;98482.48;1695936;82;28181;-89
2021/06/15 10:46:35;;;;;;;3.42;1.60;;;;;;;24.46;42.63;98483.64;1682734;82;28082;-89
2021/06/15 10:49:07;;;;;;;4.30;1.52;;;;;;;24.47;42.41;98484.47;1687565;82;28064;-88
2021/06/15 10:51:43;;;;;;;3.60;1.57;;;;;;;24.51;42.11;98482.55;1691840;82;28097;-88
2021/06/15 10:54:41;;;;;;;3.22;1.80;;;;;;;24.43;41.74;98474.67;1676920;83;28057;-88
2021/06/15 10:57:15;;;;;;;3.22;1.60;;;;;;;24.44;41.60;98476.81;1681550;83;28158;-88
2021/06/15 11:00:18;;;;;;;3.67;1.62;;;;;;;24.47;41.36;98473.27;1685120;83;28115;-88
2021/06/15 11:02:54;;;;;;;2.70;1.62;;;;;;;24.42;40.97;98474.86;1689785;83;28072;-89
2021/06/15 11:05:39;;;;;;;3.15;1.40;;;;;;;24.37;40.62;98476.79;1629372;83;28076;-88
2021/06/15 11:08:29;;;;;;;5.05;1.67;;;;;;;24.20;39.90;98468.72;1692450;82;28195;-88
2021/06/15 11:10:59;;;;;;;2.12;1.30;;;;;;;24.06;39.56;98465.55;1698246;82;28088;-88
2021/06/15 11:13:50;;;;;;;2.97;1.53;;;;;;;24.06;39.38;98464.22;1693504;82;33172;-88
2021/06/15 11:16:42;;;;;;;4.15;1.80;;;;;;;24.11;39.23;98463.16;1672954;83;42388;-88
2021/06/15 11:19:17;;;;;;;3.37;1.60;;;;;;;24.31;39.16;98453.48;1682738;83;28042;-88
2021/06/15 11:22:10;;;;;;;3.22;1.50;;;;;;;24.42;39.01;98450.28;1686464;83;28084;-88
2021/06/15 11:24:49;;;;;;;4.28;1.55;;;;;;;24.51;38.79;98446.42;1707424;83;28088;-88
2021/06/15 11:27:25;;;;;;;3.02;1.65;;;;;;;24.60;38.71;98449.25;1722317;81;28166;-88
2021/06/15 11:29:59;;;;;;;3.37;1.50;;;;;;;24.60;38.44;98443.10;1708620;82;28208;-88
2021/06/15 11:32:33;;;;;;;2.80;1.32;;;;;;;24.72;38.42;98443.36;1720580;81;28159;-88
2021/06/15 11:35:14;;;;;;;3.55;1.50;;;;;;;24.82;38.41;98435.83;1723956;81;28162;-89
2021/06/15 11:37:49;;;;;;;2.05;1.50;;;;;;;24.81;38.16;98436.33;1719356;82;28186;-88
2021/06/15 11:40:21;;;;;;;2.95;1.65;;;;;;;24.93;38.01;98435.27;1726785;82;28094;-88
2021/06/15 11:43:11;;;;;;;4.28;1.40;;;;;;;25.04;38.04;98439.27;1717605;82;28191;-89
2021/06/15 11:45:40;;;;;;;1.42;1.30;;;;;;;25.06;37.76;98436.69;1717357;82;28045;-88
2021/06/15 11:48:31;;;;;;;2.55;1.35;;;;;;;25.09;37.56;98438.98;1725013;81;28120;-89
2021/06/15 11:51:00;;;;;;;4.22;1.60;;;;;;;25.03;37.34;98437.09;1728406;82;28115;-89
2021/06/15 11:53:38;;;;;;;3.58;1.70;;;;;;;24.90;36.98;98431.66;1720840;82;28167;-89
2021/06/15 11:56:08;;;;;;;2.40;1.35;;;;;;;24.86;36.82;98433.06;1687032;82;28102;-89
2021/06/15 11:58:36;;;;;;;4.30;1.70;;;;;;;24.98;36.85;98424.27;1724288;81;28198;-89
2021/06/15 12:01:10;;;;;;;4.30;2.22;;;;;;;25.17;36.97;98425.41;1690266;83;28178;-89